KBLH/BLH METAR and TAF weather

Enter ICAO airport designator
Station Type Date Time Source
KBLH METAR 2019/02/23 16:52 UTC NOAA

KBLH 231652Z AUTO 11003KT 10SM CLR 07/00 A3034 RMK AO2 SLP273 T00720000


Station Type Date Time Source
KBLH Decoded METAR 2019/02/23 16:52 UTC NOAA

BLYTHE AIRPORT, CA, United States (KBLH) 33-37N 114-43W 119M
Feb 23, 2019 - 11:52 AM EST / 2019.02.23 1652 UTC
Wind: from the ESE (110 degrees) at 3 MPH (3 KT):0
Visibility: 10 mile(s):0
Sky conditions: clear
Temperature: 45.0 F (7.2 C)
Dew Point: 32.0 F (0.0 C)
Relative Humidity: 60%
Pressure (altimeter): 30.34 in. Hg (1027 hPa)
ob: KBLH 231652Z AUTO 11003KT 10SM CLR 07/00 A3034 RMK AO2 SLP273 T00720000
cycle: 17

Station Type Date Time Source
KBLH TAF 2019/02/23 12:42 UTC NOAA

TAF KBLH 231138Z 2312/2412 VRB05KT P6SM SKC
FM240500 33005KT P6SM FEW250


Example: see airport list